EWG8K EPKK-EDDB
Flight info
| Callsign | EWG8K |
|---|---|
| Flight time | N/A |
| Altitude | 28000 |
| Route | LUMVE L619 NUDRO T710 VAGON T205 NUKRO |
| Aircraft | A320/M-SDE3FGHIRWY/LB1 |
Departure
| Time | 2026-05-05 16:33 |
|---|---|
| Airport | Kraków John Paul II International Airport (EPKK) |
Arrival
| Time | N/A |
|---|---|
| Airport | Berlin Brandenburg Airport (EDDB) |
| Time | Latitude | Longitude | Altitude | Speed | Heading |
|---|---|---|---|---|---|
| 2026-05-05 15:54 | 50.07325 | 19.80212 | 788 ft | 0 kts | 167° |
| 2026-05-05 16:19 | 50.07338 | 19.80208 | 788 ft | 2 kts | 167° |
| 2026-05-05 16:20 | 50.07371 | 19.80194 | 788 ft | 2 kts | 119° |
| 2026-05-05 16:20 | 50.07374 | 19.80176 | 788 ft | 0 kts | 94° |
| 2026-05-05 16:21 | 50.07375 | 19.80165 | 788 ft | 2 kts | 94° |
| 2026-05-05 16:22 | 50.07375 | 19.80159 | 788 ft | 0 kts | 94° |
| 2026-05-05 16:25 | 50.07375 | 19.80160 | 788 ft | 0 kts | 94° |
| 2026-05-05 16:25 | 50.07375 | 19.80164 | 788 ft | 0 kts | 94° |
| 2026-05-05 16:26 | 50.07375 | 19.80170 | 787 ft | 1 kts | 94° |
| 2026-05-05 16:26 | 50.07375 | 19.80173 | 787 ft | 0 kts | 94° |
| 2026-05-05 16:27 | 50.07375 | 19.80174 | 787 ft | 0 kts | 94° |
| 2026-05-05 16:27 | 50.07380 | 19.80211 | 787 ft | 0 kts | 35° |
| 2026-05-05 16:27 | 50.07410 | 19.80227 | 787 ft | 13 kts | 13° |
| 2026-05-05 16:27 | 50.07439 | 19.80335 | 787 ft | 11 kts | 66° |
| 2026-05-05 16:28 | 50.07497 | 19.80391 | 787 ft | 9 kts | 18° |
| 2026-05-05 16:28 | 50.07554 | 19.80418 | 787 ft | 8 kts | 15° |
| 2026-05-05 16:28 | 50.07603 | 19.80419 | 787 ft | 6 kts | 348° |
| 2026-05-05 16:28 | 50.07642 | 19.80406 | 787 ft | 5 kts | 348° |
| 2026-05-05 16:29 | 50.07673 | 19.80395 | 787 ft | 4 kts | 346° |
| 2026-05-05 16:29 | 50.07703 | 19.80384 | 788 ft | 6 kts | 347° |
| 2026-05-05 16:29 | 50.07753 | 19.80366 | 788 ft | 9 kts | 347° |
| 2026-05-05 16:29 | 50.07824 | 19.80341 | 788 ft | 11 kts | 347° |
| 2026-05-05 16:30 | 50.07832 | 19.80338 | 788 ft | 0 kts | 347° |
| 2026-05-05 16:30 | 50.07845 | 19.80334 | 788 ft | 11 kts | 347° |
| 2026-05-05 16:30 | 50.07962 | 19.80292 | 787 ft | 17 kts | 347° |
| 2026-05-05 16:31 | 50.08008 | 19.80178 | 787 ft | 14 kts | 264° |
| 2026-05-05 16:31 | 50.08005 | 19.80148 | 787 ft | 0 kts | 261° |
| 2026-05-05 16:31 | 50.08005 | 19.80147 | 787 ft | 0 kts | 261° |
| 2026-05-05 16:31 | 50.08004 | 19.80145 | 787 ft | 0 kts | 261° |
| 2026-05-05 16:32 | 50.08004 | 19.80140 | 787 ft | 1 kts | 261° |
| 2026-05-05 16:32 | 50.08002 | 19.80122 | 787 ft | 4 kts | 261° |
| 2026-05-05 16:32 | 50.07957 | 19.79777 | 787 ft | 74 kts | 257° |
| 2026-05-05 16:32 | 50.07789 | 19.78600 | 789 ft | 144 kts | 257° |
| 2026-05-05 16:33 | 50.07546 | 19.76946 | 1235 ft | 164 kts | 256° |
| 2026-05-05 16:33 | 50.07285 | 19.75181 | 2017 ft | 168 kts | 254° |
| 2026-05-05 16:33 | 50.07021 | 19.73360 | 2802 ft | 176 kts | 253° |
| 2026-05-05 16:33 | 50.06779 | 19.71597 | 3506 ft | 161 kts | 253° |
| 2026-05-05 16:34 | 50.06550 | 19.69888 | 3997 ft | 166 kts | 252° |
| 2026-05-05 16:34 | 50.06293 | 19.68047 | 4299 ft | 180 kts | 253° |
| 2026-05-05 16:34 | 50.06014 | 19.66066 | 4546 ft | 201 kts | 253° |
| 2026-05-05 16:34 | 50.05696 | 19.63824 | 4809 ft | 225 kts | 254° |
| 2026-05-05 16:35 | 50.05340 | 19.61308 | 5236 ft | 248 kts | 254° |
| 2026-05-05 16:35 | 50.04965 | 19.58634 | 5969 ft | 257 kts | 254° |
| 2026-05-05 16:35 | 50.04585 | 19.55897 | 6817 ft | 261 kts | 255° |
| 2026-05-05 16:35 | 50.04198 | 19.53130 | 7676 ft | 264 kts | 255° |
| 2026-05-05 16:36 | 50.03800 | 19.50313 | 8500 ft | 269 kts | 255° |
| 2026-05-05 16:36 | 50.03393 | 19.47448 | 9336 ft | 273 kts | 255° |
| 2026-05-05 16:36 | 50.02989 | 19.44545 | 10135 ft | 276 kts | 257° |
| 2026-05-05 16:36 | 50.02904 | 19.41529 | 10882 ft | 284 kts | 273° |
| 2026-05-05 16:37 | 50.03377 | 19.38430 | 11220 ft | 310 kts | 289° |
| 2026-05-05 16:37 | 50.04268 | 19.35233 | 11437 ft | 334 kts | 290° |
| 2026-05-05 16:37 | 50.05229 | 19.31813 | 11591 ft | 356 kts | 290° |
| 2026-05-05 16:37 | 50.06239 | 19.28213 | 12040 ft | 368 kts | 290° |
| 2026-05-05 16:38 | 50.07267 | 19.24538 | 12700 ft | 372 kts | 290° |
| 2026-05-05 16:38 | 50.08303 | 19.20822 | 13369 ft | 377 kts | 289° |
| 2026-05-05 16:38 | 50.09346 | 19.17061 | 13990 ft | 380 kts | 289° |
| 2026-05-05 16:38 | 50.10397 | 19.13260 | 14590 ft | 384 kts | 289° |
| 2026-05-05 16:39 | 50.11453 | 19.09421 | 15178 ft | 388 kts | 289° |
| 2026-05-05 16:39 | 50.12516 | 19.05542 | 15755 ft | 392 kts | 290° |
| 2026-05-05 16:39 | 50.13593 | 19.01614 | 16323 ft | 395 kts | 290° |
| 2026-05-05 16:39 | 50.14679 | 18.97656 | 16868 ft | 398 kts | 290° |
| 2026-05-05 16:40 | 50.15769 | 18.93666 | 17445 ft | 402 kts | 290° |
| 2026-05-05 16:40 | 50.16863 | 18.89644 | 18006 ft | 405 kts | 290° |
| 2026-05-05 16:40 | 50.17968 | 18.85583 | 18488 ft | 408 kts | 290° |
| 2026-05-05 16:40 | 50.19080 | 18.81497 | 18968 ft | 410 kts | 290° |
| 2026-05-05 16:41 | 50.20186 | 18.77439 | 19459 ft | 412 kts | 290° |
| 2026-05-05 16:41 | 50.21392 | 18.73375 | 19937 ft | 416 kts | 297° |
| 2026-05-05 16:41 | 50.23043 | 18.69623 | 20411 ft | 421 kts | 308° |
| 2026-05-05 16:41 | 50.25132 | 18.66388 | 20889 ft | 425 kts | 319° |
| 2026-05-05 16:42 | 50.27594 | 18.63798 | 21403 ft | 429 kts | 329° |
| 2026-05-05 16:42 | 50.30327 | 18.61860 | 21881 ft | 432 kts | 335° |
| 2026-05-05 16:42 | 50.33105 | 18.60031 | 22305 ft | 435 kts | 335° |
| 2026-05-05 16:42 | 50.35898 | 18.58188 | 22720 ft | 437 kts | 335° |
| 2026-05-05 16:43 | 50.38709 | 18.56326 | 23129 ft | 440 kts | 335° |
| 2026-05-05 16:43 | 50.41531 | 18.54449 | 23505 ft | 442 kts | 335° |
| 2026-05-05 16:43 | 50.44366 | 18.52561 | 23854 ft | 444 kts | 335° |
| 2026-05-05 16:43 | 50.47221 | 18.50653 | 24204 ft | 446 kts | 335° |
| 2026-05-05 16:44 | 50.50086 | 18.48734 | 24547 ft | 448 kts | 334° |
| 2026-05-05 16:44 | 50.52923 | 18.46832 | 24870 ft | 450 kts | 334° |
| 2026-05-05 16:44 | 50.55798 | 18.44849 | 25202 ft | 451 kts | 331° |
| 2026-05-05 16:44 | 50.58500 | 18.42350 | 25532 ft | 450 kts | 323° |
| 2026-05-05 16:45 | 50.60966 | 18.39319 | 25886 ft | 450 kts | 318° |
| 2026-05-05 16:45 | 50.63392 | 18.36211 | 26206 ft | 451 kts | 319° |
| 2026-05-05 16:45 | 50.65833 | 18.33083 | 26506 ft | 453 kts | 319° |
| 2026-05-05 16:45 | 50.68282 | 18.29948 | 26809 ft | 455 kts | 319° |
| 2026-05-05 16:46 | 50.70740 | 18.26804 | 27100 ft | 456 kts | 319° |
| 2026-05-05 16:46 | 50.73142 | 18.23512 | 27378 ft | 456 kts | 313° |
| 2026-05-05 16:46 | 50.75219 | 18.19743 | 27693 ft | 454 kts | 305° |
| 2026-05-05 16:46 | 50.77129 | 18.15776 | 27776 ft | 452 kts | 305° |
| 2026-05-05 16:47 | 50.79034 | 18.11820 | 27778 ft | 452 kts | 305° |
| 2026-05-05 16:47 | 50.80937 | 18.07862 | 27779 ft | 452 kts | 306° |
| 2026-05-05 16:47 | 50.82840 | 18.03892 | 27774 ft | 453 kts | 305° |
| 2026-05-05 16:47 | 50.84715 | 17.99971 | 27775 ft | 453 kts | 305° |
| 2026-05-05 16:48 | 50.86614 | 17.95988 | 27772 ft | 453 kts | 305° |
| 2026-05-05 16:48 | 50.88512 | 17.92001 | 27769 ft | 453 kts | 305° |
| 2026-05-05 16:48 | 50.90410 | 17.88013 | 27779 ft | 453 kts | 305° |
| 2026-05-05 16:48 | 50.92303 | 17.84036 | 27768 ft | 451 kts | 305° |
| 2026-05-05 16:49 | 50.94190 | 17.80070 | 27766 ft | 450 kts | 305° |
| 2026-05-05 16:49 | 50.96075 | 17.76105 | 27770 ft | 449 kts | 305° |
| 2026-05-05 16:49 | 50.97960 | 17.72132 | 27762 ft | 449 kts | 305° |
| 2026-05-05 16:49 | 50.99837 | 17.68166 | 27759 ft | 450 kts | 305° |
| 2026-05-05 16:50 | 51.01688 | 17.64242 | 27754 ft | 450 kts | 304° |
| 2026-05-05 16:50 | 51.03563 | 17.60256 | 27751 ft | 450 kts | 304° |
| 2026-05-05 16:50 | 51.05438 | 17.56267 | 27752 ft | 451 kts | 304° |
| 2026-05-05 16:50 | 51.07317 | 17.52270 | 27752 ft | 451 kts | 304° |
| 2026-05-05 16:51 | 51.09197 | 17.48267 | 27758 ft | 451 kts | 304° |
| 2026-05-05 16:51 | 51.11071 | 17.44265 | 27758 ft | 451 kts | 304° |
| 2026-05-05 16:51 | 51.12949 | 17.40244 | 27757 ft | 452 kts | 304° |
| 2026-05-05 16:51 | 51.14825 | 17.36224 | 27755 ft | 452 kts | 304° |
| 2026-05-05 16:52 | 51.16791 | 17.32316 | 27772 ft | 453 kts | 310° |
| 2026-05-05 16:52 | 51.19062 | 17.28807 | 27768 ft | 455 kts | 314° |
| 2026-05-05 16:52 | 51.21360 | 17.25419 | 27764 ft | 455 kts | 314° |
| 2026-05-05 16:52 | 51.23687 | 17.21989 | 27763 ft | 455 kts | 314° |
| 2026-05-05 16:53 | 51.26014 | 17.18555 | 27769 ft | 455 kts | 314° |
| 2026-05-05 16:53 | 51.28338 | 17.15120 | 27770 ft | 455 kts | 313° |
| 2026-05-05 16:53 | 51.30466 | 17.11410 | 27770 ft | 451 kts | 305° |
| 2026-05-05 16:53 | 51.32207 | 17.07259 | 27773 ft | 448 kts | 296° |
| 2026-05-05 16:54 | 51.33659 | 17.02874 | 27790 ft | 447 kts | 295° |
| 2026-05-05 16:54 | 51.35109 | 16.98470 | 27789 ft | 447 kts | 295° |
| 2026-05-05 16:54 | 51.36563 | 16.94075 | 27800 ft | 447 kts | 295° |
| 2026-05-05 16:54 | 51.38016 | 16.89689 | 27805 ft | 446 kts | 295° |
| 2026-05-05 16:55 | 51.39466 | 16.85304 | 27808 ft | 445 kts | 295° |
| 2026-05-05 16:55 | 51.40914 | 16.80923 | 27807 ft | 445 kts | 295° |
| 2026-05-05 16:55 | 51.42358 | 16.76541 | 27805 ft | 445 kts | 295° |
| 2026-05-05 16:55 | 51.43784 | 16.72211 | 27804 ft | 444 kts | 295° |
| 2026-05-05 16:56 | 51.45228 | 16.67821 | 27808 ft | 444 kts | 295° |
| 2026-05-05 16:56 | 51.46666 | 16.63440 | 27805 ft | 444 kts | 295° |
| 2026-05-05 16:56 | 51.48097 | 16.59060 | 27802 ft | 444 kts | 295° |
| 2026-05-05 16:56 | 51.49531 | 16.54669 | 27812 ft | 444 kts | 295° |
| 2026-05-05 16:57 | 51.50961 | 16.50286 | 27809 ft | 443 kts | 295° |
| 2026-05-05 16:57 | 51.52389 | 16.45898 | 27809 ft | 443 kts | 295° |
| 2026-05-05 16:57 | 51.53812 | 16.41512 | 27810 ft | 443 kts | 295° |
| 2026-05-05 16:57 | 51.55230 | 16.37131 | 27812 ft | 443 kts | 295° |
| 2026-05-05 16:58 | 51.56652 | 16.32737 | 27810 ft | 442 kts | 295° |
| 2026-05-05 16:58 | 51.58071 | 16.28349 | 27808 ft | 442 kts | 295° |
| 2026-05-05 16:58 | 51.59488 | 16.23963 | 27804 ft | 442 kts | 295° |
| 2026-05-05 16:58 | 51.60908 | 16.19561 | 27801 ft | 442 kts | 295° |
| 2026-05-05 16:59 | 51.62322 | 16.15164 | 27806 ft | 442 kts | 294° |
| 2026-05-05 16:59 | 51.63734 | 16.10772 | 27824 ft | 442 kts | 294° |
| 2026-05-05 16:59 | 51.65143 | 16.06382 | 27829 ft | 441 kts | 294° |
| 2026-05-05 16:59 | 51.66547 | 16.01995 | 27833 ft | 440 kts | 294° |
| 2026-05-05 17:00 | 51.67947 | 15.97609 | 27846 ft | 439 kts | 294° |
| 2026-05-05 17:00 | 51.69342 | 15.93229 | 27847 ft | 439 kts | 294° |
| 2026-05-05 17:00 | 51.70728 | 15.88861 | 27847 ft | 438 kts | 294° |
| 2026-05-05 17:00 | 51.72113 | 15.84489 | 27850 ft | 437 kts | 294° |
| 2026-05-05 17:01 | 51.73479 | 15.80179 | 27848 ft | 437 kts | 294° |
| 2026-05-05 17:01 | 51.74878 | 15.75763 | 27842 ft | 436 kts | 294° |
| 2026-05-05 17:01 | 51.76239 | 15.71453 | 27835 ft | 436 kts | 293° |
| 2026-05-05 17:01 | 51.77610 | 15.67090 | 27841 ft | 436 kts | 293° |
| 2026-05-05 17:02 | 51.78982 | 15.62722 | 27837 ft | 436 kts | 293° |
| 2026-05-05 17:02 | 51.80352 | 15.58354 | 27829 ft | 436 kts | 293° |
| 2026-05-05 17:02 | 51.81721 | 15.53977 | 27822 ft | 436 kts | 293° |
| 2026-05-05 17:02 | 51.83086 | 15.49598 | 27824 ft | 436 kts | 293° |
| 2026-05-05 17:03 | 51.84454 | 15.45205 | 27820 ft | 437 kts | 293° |
| 2026-05-05 17:03 | 51.85820 | 15.40816 | 27819 ft | 437 kts | 293° |
| 2026-05-05 17:03 | 51.87182 | 15.36427 | 27821 ft | 437 kts | 293° |
| 2026-05-05 17:03 | 51.88542 | 15.32035 | 27821 ft | 437 kts | 293° |
| 2026-05-05 17:04 | 51.89904 | 15.27640 | 27837 ft | 437 kts | 293° |
| 2026-05-05 17:04 | 51.91268 | 15.23233 | 27811 ft | 437 kts | 292° |
| 2026-05-05 17:04 | 51.92626 | 15.18828 | 27813 ft | 438 kts | 292° |
| 2026-05-05 17:04 | 51.93985 | 15.14415 | 27817 ft | 438 kts | 292° |
| 2026-05-05 17:05 | 51.95346 | 15.09980 | 27810 ft | 439 kts | 292° |
| 2026-05-05 17:05 | 51.96708 | 15.05546 | 27810 ft | 439 kts | 292° |
| 2026-05-05 17:05 | 51.98066 | 15.01111 | 27816 ft | 439 kts | 292° |
| 2026-05-05 17:05 | 51.99422 | 14.96676 | 27822 ft | 439 kts | 292° |
| 2026-05-05 17:06 | 52.00781 | 14.92227 | 27823 ft | 440 kts | 292° |
| 2026-05-05 17:06 | 52.02134 | 14.87779 | 27829 ft | 440 kts | 292° |
| 2026-05-05 17:06 | 52.03467 | 14.83386 | 27838 ft | 440 kts | 292° |
| 2026-05-05 17:06 | 52.04647 | 14.78829 | 27833 ft | 436 kts | 285° |
| 2026-05-05 17:07 | 52.05364 | 14.74066 | 27824 ft | 432 kts | 276° |
| 2026-05-05 17:07 | 52.05644 | 14.69239 | 27119 ft | 427 kts | 268° |
| 2026-05-05 17:07 | 52.05537 | 14.64406 | 25965 ft | 429 kts | 265° |
| 2026-05-05 17:07 | 52.05373 | 14.59539 | 25054 ft | 434 kts | 265° |
| 2026-05-05 17:08 | 52.05203 | 14.54612 | 24582 ft | 439 kts | 265° |
| 2026-05-05 17:08 | 52.05031 | 14.49641 | 24109 ft | 442 kts | 265° |
| 2026-05-05 17:08 | 52.04862 | 14.44645 | 23644 ft | 444 kts | 265° |
| 2026-05-05 17:08 | 52.04900 | 14.39636 | 23137 ft | 444 kts | 273° |
| 2026-05-05 17:09 | 52.05243 | 14.34651 | 22584 ft | 442 kts | 274° |
| 2026-05-05 17:09 | 52.05580 | 14.29706 | 22062 ft | 439 kts | 274° |
| 2026-05-05 17:09 | 52.05907 | 14.24792 | 21539 ft | 436 kts | 274° |
| 2026-05-05 17:09 | 52.06231 | 14.19905 | 21026 ft | 433 kts | 274° |
| 2026-05-05 17:10 | 52.06551 | 14.15061 | 20522 ft | 430 kts | 274° |
| 2026-05-05 17:10 | 52.06865 | 14.10241 | 20025 ft | 427 kts | 274° |
| 2026-05-05 17:10 | 52.07174 | 14.05449 | 19538 ft | 425 kts | 274° |
| 2026-05-05 17:10 | 52.07539 | 14.00701 | 19057 ft | 422 kts | 275° |
| 2026-05-05 17:11 | 52.07910 | 13.96034 | 18586 ft | 420 kts | 275° |
| 2026-05-05 17:11 | 52.08278 | 13.91340 | 18116 ft | 418 kts | 275° |
| 2026-05-05 17:11 | 52.08642 | 13.86659 | 17587 ft | 415 kts | 275° |
| 2026-05-05 17:11 | 52.08999 | 13.82029 | 17066 ft | 411 kts | 275° |
| 2026-05-05 17:12 | 52.09351 | 13.77430 | 16545 ft | 408 kts | 275° |
| 2026-05-05 17:12 | 52.09702 | 13.72862 | 16034 ft | 406 kts | 275° |
| 2026-05-05 17:12 | 52.10052 | 13.68319 | 15530 ft | 404 kts | 275° |
| 2026-05-05 17:12 | 52.10401 | 13.63801 | 15040 ft | 401 kts | 275° |
| 2026-05-05 17:13 | 52.10748 | 13.59316 | 14551 ft | 399 kts | 275° |
| 2026-05-05 17:13 | 52.11095 | 13.54845 | 14069 ft | 397 kts | 275° |
| 2026-05-05 17:13 | 52.11440 | 13.50398 | 13591 ft | 395 kts | 275° |
| 2026-05-05 17:13 | 52.11784 | 13.45981 | 13061 ft | 392 kts | 275° |
| 2026-05-05 17:14 | 52.12120 | 13.41596 | 12541 ft | 389 kts | 275° |
| 2026-05-05 17:14 | 52.12446 | 13.37297 | 12033 ft | 387 kts | 275° |
| 2026-05-05 17:14 | 52.12769 | 13.32909 | 11531 ft | 385 kts | 275° |
| 2026-05-05 17:14 | 52.13074 | 13.28656 | 11032 ft | 380 kts | 275° |
| 2026-05-05 17:15 | 52.13372 | 13.24433 | 10543 ft | 371 kts | 275° |
| 2026-05-05 17:15 | 52.13658 | 13.20310 | 10064 ft | 364 kts | 275° |
| 2026-05-05 17:15 | 52.13931 | 13.16296 | 9849 ft | 349 kts | 275° |
| 2026-05-05 17:15 | 52.14189 | 13.12485 | 9835 ft | 329 kts | 275° |
| 2026-05-05 17:16 | 52.14434 | 13.08893 | 9844 ft | 310 kts | 275° |
| 2026-05-05 17:16 | 52.14667 | 13.05493 | 9847 ft | 294 kts | 275° |
| 2026-05-05 17:16 | 52.14815 | 13.03342 | 9846 ft | 283 kts | 275° |
| 2026-05-05 17:16 | 52.15031 | 13.00238 | 9846 ft | 268 kts | 275° |
| 2026-05-05 17:17 | 52.15238 | 12.97299 | 9849 ft | 254 kts | 275° |
| 2026-05-05 17:17 | 52.15436 | 12.94494 | 9845 ft | 247 kts | 275° |
| 2026-05-05 17:17 | 52.15632 | 12.91723 | 9845 ft | 246 kts | 275° |
| 2026-05-05 17:17 | 52.15827 | 12.88960 | 9813 ft | 244 kts | 275° |
| 2026-05-05 17:18 | 52.16020 | 12.86252 | 9490 ft | 244 kts | 275° |
| 2026-05-05 17:18 | 52.16220 | 12.83477 | 9129 ft | 244 kts | 275° |
| 2026-05-05 17:18 | 52.16410 | 12.80741 | 8772 ft | 243 kts | 275° |
| 2026-05-05 17:18 | 52.16596 | 12.78007 | 8443 ft | 242 kts | 275° |
| 2026-05-05 17:19 | 52.16781 | 12.75295 | 8093 ft | 241 kts | 275° |
| 2026-05-05 17:19 | 52.16959 | 12.72586 | 7775 ft | 239 kts | 275° |
| 2026-05-05 17:19 | 52.17134 | 12.69935 | 7453 ft | 238 kts | 275° |
| 2026-05-05 17:19 | 52.17302 | 12.67249 | 7078 ft | 239 kts | 275° |
| 2026-05-05 17:20 | 52.17464 | 12.64554 | 6749 ft | 238 kts | 275° |
| 2026-05-05 17:20 | 52.17618 | 12.61872 | 6420 ft | 237 kts | 275° |
| 2026-05-05 17:20 | 52.17766 | 12.59197 | 6074 ft | 237 kts | 275° |
| 2026-05-05 17:20 | 52.17908 | 12.56522 | 5721 ft | 237 kts | 275° |